Akron, Alabama
Current Conditions -  °F | °C
As of 2:53 AM on Sunday 21 Dec 2014 (Local Time) from KTCL Reporting Station
Overcast Overcast  
Wind Chill: 34°   Ceiling: 3300
Heat Index: 34°   Visibility: 8mi
Dew Point: 32°   Wind: 3mph
Humidity: 92%   Direction: 20°NNE
Pressure: 30.2"   Gusts: NA
Location:  32.88°N, 87.74°W
Report Text: KTCL 210853Z AUTO 02003KT 8SM OVC033 01/00 A3020 RMK AO2 SLP227 T00110000 56002
Loading
Personal Weather Stations






























Interactive Weather Map New forecast layout! Learn more

10-Day Weather Forecast

Advertisements
Track Severe Weather on mobile